Time;durP1;ratioP1;P1;durP2;ratioP2;P2;SDS_P1;SDS_P2;PMS_P1;PMS_P2;Temp;Humidity;BMP_temperature;BMP_pressure;BME280_temperature;BME280_humidity;BME280_pressure;Samples;Min_cycle;Max_cycle;Signal;HPM_P1;HPM_P2
2024/01/25 00:02:25;;;;;;;37.10;5.90;;;;;;;;;;5086469;28;20122;-72
2024/01/25 00:04:51;;;;;;;32.30;5.68;;;;;;;;;;5087501;28;20032;-73
2024/01/25 00:07:17;;;;;;;34.63;4.80;;;;;;;;;;5088618;28;20040;-73
2024/01/25 00:09:43;;;;;;;43.00;4.88;;;;;;;;;;5084807;28;20139;-71
2024/01/25 00:12:09;;;;;;;27.17;4.65;;;;;;;;;;5076377;28;20033;-72
2024/01/25 00:14:35;;;;;;;40.50;6.05;;;;;;;;;;5075258;28;20071;-72
2024/01/25 00:17:01;;;;;;;43.15;6.85;;;;;;;;;;5070175;28;20488;-73
2024/01/25 00:19:27;;;;;;;35.28;5.28;;;;;;;;;;5030288;28;1175779;-72
2024/01/25 00:21:53;;;;;;;33.00;5.50;;;;;;;;;;5081529;28;20047;-73
2024/01/25 00:24:20;;;;;;;40.85;5.63;;;;;;;;;;5089209;28;20032;-73
2024/01/25 00:26:46;;;;;;;32.47;5.22;;;;;;;;;;5082978;28;20040;-72
2024/01/25 00:29:12;;;;;;;37.30;5.43;;;;;;;;;;5089017;28;20130;-72
2024/01/25 00:31:38;;;;;;;25.20;4.70;;;;;;;;;;5087759;28;20089;-72
2024/01/25 00:34:04;;;;;;;35.22;5.30;;;;;;;;;;5089382;28;20028;-72
2024/01/25 00:36:31;;;;;;;26.55;5.15;;;;;;;;;;5077978;28;20041;-72
2024/01/25 00:38:57;;;;;;;32.53;5.20;;;;;;;;;;5070979;28;20395;-72
2024/01/25 00:41:23;;;;;;;33.17;4.82;;;;;;;;;;5068135;28;20040;-72
2024/01/25 00:43:49;;;;;;;31.05;5.10;;;;;;;;;;5070926;28;20503;-72
2024/01/25 00:46:15;;;;;;;32.72;4.32;;;;;;;;;;5077097;28;20079;-72
2024/01/25 00:48:42;;;;;;;38.22;7.28;;;;;;;;;;5089056;28;20040;-72
2024/01/25 00:51:13;;;;;;;32.17;5.75;;;;;;;;;;5081149;28;20043;-72
2024/01/25 00:53:39;;;;;;;39.65;6.50;;;;;;;;;;5092643;28;20032;-72
2024/01/25 00:56:06;;;;;;;37.92;5.40;;;;;;;;;;5085463;28;20036;-72
2024/01/25 00:58:32;;;;;;;34.72;5.82;;;;;;;;;;5057830;28;20384;-72
2024/01/25 01:00:58;;;;;;;34.00;4.97;;;;;;;;;;5074204;28;20044;-72
2024/01/25 01:03:24;;;;;;;36.33;5.80;;;7.20;99.90;;;;;;5075729;28;20059;-72
2024/01/25 01:05:50;;;;;;;30.88;4.40;;;6.40;99.90;;;;;;5078547;28;20040;-72
2024/01/25 01:08:16;;;;;;;33.80;5.22;;;6.50;99.90;;;;;;5077949;28;20035;-72
2024/01/25 01:10:42;;;;;;;35.95;7.10;;;;;;;;;;5086934;28;20085;-72
2024/01/25 01:13:08;;;;;;;43.10;5.72;;;;;;;;;;5091774;28;20039;-72
2024/01/25 01:15:34;;;;;;;35.63;6.35;;;;;;;;;;5072149;28;20119;-73
2024/01/25 01:18:00;;;;;;;28.88;5.13;;;;;;;;;;5057190;28;20356;-72
2024/01/25 01:20:26;;;;;;;30.95;4.68;;;;;;;;;;5076213;28;20435;-72
2024/01/25 01:22:53;;;;;;;36.78;4.95;;;;;;;;;;5057240;28;20467;-73
2024/01/25 01:25:19;;;;;;;42.60;6.47;;;;;;;;;;5080469;28;20028;-73
2024/01/25 01:27:45;;;;;;;36.55;5.53;;;;;;;;;;5086068;28;20063;-73
2024/01/25 01:30:11;;;;;;;39.50;6.75;;;;;;;;;;5088849;28;20122;-73
2024/01/25 01:32:38;;;;;;;38.40;5.82;;;;;;;;;;5083371;28;20044;-73
2024/01/25 01:35:04;;;;;;;34.53;5.70;;;;;;;;;;5082917;28;20373;-73
2024/01/25 01:37:30;;;;;;;28.80;6.28;;;;;;;;;;5082855;28;20044;-72
2024/01/25 01:39:58;;;;;;;36.05;6.53;;;;;;;;;;5092619;28;20043;-73
2024/01/25 01:42:24;;;;;;;37.22;5.50;;;;;;;;;;5091738;28;20134;-72
2024/01/25 01:44:51;;;;;;;34.97;5.00;;;7.00;99.90;;;;;;5091381;28;20036;-72
2024/01/25 01:47:18;;;;;;;36.90;5.28;;;;;;;;;;5097065;28;20067;-72
2024/01/25 01:49:44;;;;;;;40.25;6.70;;;;;;;;;;5057361;28;20032;-72
2024/01/25 01:52:11;;;;;;;33.85;5.32;;;;;;;;;;5073288;28;20391;-73
2024/01/25 01:54:37;;;;;;;32.72;6.45;;;;;;;;;;5072816;28;20068;-73
2024/01/25 01:57:04;;;;;;;32.78;5.80;;;;;;;;;;5057535;28;20036;-73
2024/01/25 01:59:31;;;;;;;42.28;6.65;;;;;;;;;;5085600;28;20032;-73
2024/01/25 02:01:57;;;;;;;31.30;5.30;;;;;;;;;;5083826;28;20468;-73
2024/01/25 02:04:23;;;;;;;38.30;5.38;;;;;;;;;;5087466;28;20445;-73
2024/01/25 02:06:49;;;;;;;33.58;5.43;;;;;;;;;;5073316;28;20039;-73
2024/01/25 02:09:15;;;;;;;48.03;7.32;;;;;;;;;;5084331;28;20040;-73
2024/01/25 02:11:41;;;;;;;31.85;4.78;;;;;;;;;;5073158;28;20376;-73
2024/01/25 02:14:10;;;;;;;30.70;5.28;;;;;;;;;;5082193;28;20042;-73
2024/01/25 02:16:37;;;;;;;35.72;5.97;;;;;;;;;;5072714;28;20087;-73
2024/01/25 02:19:03;;;;;;;34.75;6.22;;;;;;;;;;5075765;28;20040;-73
2024/01/25 02:21:29;;;;;;;43.10;5.95;;;;;;;;;;5090203;28;20139;-73
2024/01/25 02:23:55;;;;;;;32.47;6.00;;;;;;;;;;5079570;28;20048;-73
2024/01/25 02:26:21;;;;;;;36.08;6.13;;;;;;;;;;5072535;28;20111;-73
2024/01/25 02:28:47;;;;;;;38.65;5.10;;;;;;;;;;5084423;28;20036;-73
2024/01/25 02:31:13;;;;;;;32.10;4.80;;;;;;;;;;5056009;28;20530;-72
2024/01/25 02:33:39;;;;;;;40.67;6.10;;;;;;;;;;5057204;28;20389;-73
2024/01/25 02:36:06;;;;;;;38.17;5.30;;;;;;;;;;5087338;28;20032;-73
2024/01/25 02:38:32;;;;;;;36.78;6.05;;;;;;;;;;5090896;28;20105;-73
2024/01/25 02:40:58;;;;;;;35.92;5.88;;;;;;;;;;5078456;28;20401;-73
2024/01/25 02:43:24;;;;;;;28.27;5.63;;;;;;;;;;5073490;28;20134;-73
2024/01/25 02:45:50;;;;;;;36.65;5.97;;;;;;;;;;5057670;28;20040;-73
2024/01/25 02:48:16;;;;;;;31.80;5.35;;;;;;;;;;5073470;28;20036;-72
2024/01/25 02:50:42;;;;;;;41.13;6.25;;;;;;;;;;5081340;28;20039;-72
2024/01/25 02:53:08;;;;;;;28.65;5.47;;;;;;;;;;5072074;28;20036;-73
2024/01/25 02:55:34;;;;;;;25.60;4.85;;;;;;;;;;5056430;28;20032;-73
2024/01/25 02:58:00;;;;;;;42.70;5.10;;;;;;;;;;5076260;28;20398;-73
2024/01/25 03:00:27;;;;;;;37.58;5.53;;;;;;;;;;5084594;28;20419;-73
2024/01/25 03:02:53;;;;;;;36.97;5.50;;;;;;;;;;5090251;28;20072;-73
2024/01/25 03:05:19;;;;;;;34.05;5.38;;;;;;;;;;5081683;28;20827;-73
2024/01/25 03:07:45;;;;;;;29.10;5.45;;;;;;;;;;5090079;28;20456;-73
2024/01/25 03:10:11;;;;;;;43.58;7.72;;;;;;;;;;5088124;28;20521;-72
2024/01/25 03:12:40;;;;;;;34.78;5.28;;;;;;;;;;5073458;28;20489;-73
2024/01/25 03:15:06;;;;;;;37.60;4.97;;;;;;;;;;5073046;28;20064;-72
2024/01/25 03:17:32;;;;;;;33.05;5.00;;;;;;;;;;5074246;28;20051;-73
2024/01/25 03:19:58;;;;;;;34.42;5.50;;;;;;;;;;5084473;28;20048;-73
2024/01/25 03:22:24;;;;;;;37.45;5.65;;;;;;;;;;5085588;28;20040;-73
2024/01/25 03:24:50;;;;;;;33.00;5.35;;;;;;;;;;5089629;28;20032;-73
2024/01/25 03:27:16;;;;;;;35.60;5.15;;;;;;;;;;5079975;28;20036;-73
2024/01/25 03:29:43;;;;;;;40.08;6.00;;;;;;;;;;5081213;28;20076;-73
2024/01/25 03:32:10;;;;;;;37.15;5.45;;;;;;;;;;5083133;28;20123;-73
2024/01/25 03:34:36;;;;;;;34.80;5.82;;;;;;;;;;5071832;28;20390;-73
2024/01/25 03:37:02;;;;;;;33.45;5.20;;;;;;;;;;5071449;28;20041;-73
2024/01/25 03:39:28;;;;;;;31.25;4.85;;;;;;;;;;5081490;28;20067;-73
2024/01/25 03:41:54;;;;;;;35.42;5.03;;;;;;;;;;5071410;28;20063;-73
2024/01/25 03:44:20;;;;;;;38.40;5.95;;;;;;;;;;5071712;28;20036;-73
2024/01/25 03:46:46;;;;;;;36.03;5.40;;;;;;;;;;5084635;28;20126;-73
2024/01/25 03:49:12;;;;;;;26.02;4.80;;;;;;;;;;5077485;28;20090;-73
2024/01/25 03:51:38;;;;;;;26.60;5.07;;;;;;;;;;5071516;28;20102;-73
2024/01/25 03:54:05;;;;;;;45.10;5.90;;;;;;;;;;5071123;28;20040;-73
2024/01/25 03:56:31;;;;;;;39.33;5.28;;;;;;;;;;5056084;28;20040;-73
2024/01/25 03:58:57;;;;;;;31.63;5.43;;;;;;;;;;5083495;28;20083;-73
2024/01/25 04:01:23;;;;;;;42.70;4.93;;;;;;;;;;5089372;28;20476;-73
2024/01/25 04:03:49;;;;;;;45.00;5.65;;;;;;;;;;5059945;28;20048;-73
2024/01/25 04:06:15;;;;;;;49.80;5.53;;;;;;;;;;5068468;28;20504;-72
2024/01/25 04:08:41;;;;;;;35.22;6.13;;;;;;;;;;5072138;28;20047;-73
2024/01/25 04:11:09;;;;;;;33.03;4.80;;;;;;;;;;5071348;28;20503;-73
2024/01/25 04:13:35;;;;;;;33.50;5.60;;;;;;;;;;5071006;28;20099;-73
2024/01/25 04:16:01;;;;;;;34.10;5.20;;;;;;;;;;5088848;28;20499;-73
2024/01/25 04:18:27;;;;;;;37.63;5.57;;;;;;;;;;5082967;28;20039;-73
2024/01/25 04:20:53;;;;;;;36.50;4.93;;;;;;;;;;5058892;28;20109;-73
2024/01/25 04:23:19;;;;;;;31.13;5.70;;;;;;;;;;5085088;28;20052;-73
2024/01/25 04:25:45;;;;;;;37.10;6.50;;;;;;;;;;5082936;28;20044;-73
2024/01/25 04:28:11;;;;;;;45.45;6.68;;;;;;;;;;5091596;28;20048;-73
2024/01/25 04:30:37;;;;;;;35.45;5.28;;;;;;;;;;5093008;28;20039;-73
2024/01/25 04:33:04;;;;;;;42.55;6.35;;;;;;;;;;5076856;28;20127;-73
2024/01/25 04:35:31;;;;;;;31.63;5.18;;;;;;;;;;5089522;28;20436;-74
2024/01/25 04:37:57;;;;;;;36.17;5.18;;;;;;;;;;5075672;28;20115;-73
2024/01/25 04:40:23;;;;;;;34.42;5.72;;;;;;;;;;5076295;28;20043;-73
2024/01/25 04:42:49;;;;;;;31.65;4.93;;;;;;;;;;5082691;28;20044;-73
2024/01/25 04:45:15;;;;;;;37.83;4.90;;;;;;;;;;5081695;28;20480;-73
2024/01/25 04:47:41;;;;;;;44.75;6.13;;;;;;;;;;5085807;28;20056;-72
2024/01/25 04:50:08;;;;;;;33.00;6.78;;;;;;;;;;5074342;28;20095;-73
2024/01/25 04:52:34;;;;;;;34.70;5.13;;;;;;;;;;5087196;28;20042;-73
2024/01/25 04:55:00;;;;;;;34.17;4.82;;;;;;;;;;5081896;28;20075;-73
2024/01/25 04:57:26;;;;;;;30.88;5.32;;;;;;;;;;5089421;28;20122;-73
2024/01/25 04:59:52;;;;;;;31.73;5.00;;;;;;;;;;5067484;28;20039;-73
2024/01/25 05:02:18;;;;;;;35.65;6.47;;;;;;;;;;5075286;28;20045;-73
2024/01/25 05:04:44;;;;;;;43.78;5.82;;;;;;;;;;5067800;28;20433;-73
2024/01/25 05:07:10;;;;;;;42.60;6.60;;;;;;;;;;5077496;28;20101;-73
2024/01/25 05:09:37;;;;;;;31.25;5.80;;;;;;;;;;5078442;28;20043;-73
2024/01/25 05:12:03;;;;;;;30.88;6.13;;;;;;;;;;5094206;28;20051;-72
2024/01/25 05:14:29;;;;;;;33.15;4.80;;;;;;;;;;5094237;28;20166;-73
2024/01/25 05:16:55;;;;;;;39.28;5.38;;;;;;;;;;5094243;28;20039;-73
2024/01/25 05:19:21;;;;;;;31.10;5.70;;;;;;;;;;5094162;28;20044;-73
2024/01/25 05:21:47;;;;;;;43.10;5.70;;;;;;;;;;5090549;28;20052;-73
2024/01/25 05:24:13;;;;;;;41.00;4.90;;;;;;;;;;5073833;28;20119;-73
2024/01/25 05:26:39;;;;;;;33.08;5.95;;;;;;;;;;5073790;28;20045;-72
2024/01/25 05:29:05;;;;;;;38.25;5.60;;;;;;;;;;5073883;28;20040;-73
2024/01/25 05:31:31;;;;;;;38.13;5.10;;;;;;;;;;5073926;28;20397;-73
2024/01/25 05:33:57;;;;;;;37.17;5.35;;;;;;;;;;5073536;28;20047;-72
2024/01/25 05:36:24;;;;;;;36.50;5.97;;;;;;;;;;5073408;28;20415;-73
2024/01/25 05:38:50;;;;;;;39.75;6.03;;;;;;;;;;5073440;28;20094;-72
2024/01/25 05:41:16;;;;;;;30.10;4.72;;;;;;;;;;5073408;28;20119;-73
2024/01/25 05:43:42;;;;;;;40.47;5.50;;;;;;;;;;5073420;28;20048;-73
2024/01/25 05:46:09;;;;;;;33.25;5.93;;;;;;;;;;5073335;28;20032;-73
2024/01/25 05:48:35;;;;;;;40.63;6.07;;;;;;;;;;5073289;28;20507;-73
2024/01/25 05:51:01;;;;;;;34.67;4.72;;;;;;;;;;5073299;28;20119;-73
2024/01/25 05:53:27;;;;;;;43.80;5.93;;;;;;;;;;5073251;28;20040;-73
2024/01/25 05:55:53;;;;;;;31.90;5.22;;;;;;;;;;5073164;28;20040;-73
2024/01/25 05:58:19;;;;;;;38.72;5.03;;;;;;;;;;5078046;28;20165;-73
2024/01/25 06:00:45;;;;;;;39.45;5.70;;;;;;;;;;5076206;28;20044;-73
2024/01/25 06:03:11;;;;;;;44.65;4.97;;;;;;;;;;5076717;28;20043;-73
2024/01/25 06:05:37;;;;;;;39.47;5.70;;;;;;;;;;5089009;28;20062;-73
2024/01/25 06:08:04;;;;;;;34.05;5.32;;;;;;;;;;5066649;28;20043;-73
2024/01/25 06:10:30;;;;;;;25.13;5.22;;;;;;;;;;5092829;28;20036;-75
2024/01/25 06:12:56;;;;;;;43.55;6.70;;;;;;;;;;5076417;28;20063;-73
2024/01/25 06:15:22;;;;;;;33.58;5.10;;;;;;;;;;5072925;28;20041;-73
2024/01/25 06:17:48;;;;;;;28.65;4.82;;;;;;;;;;5072887;28;20099;-72
2024/01/25 06:20:14;;;;;;;36.95;5.63;;;;;;;;;;5055924;28;20066;-73
2024/01/25 06:22:40;;;;;;;36.75;5.05;;;;;;;;;;5072744;28;20113;-73
2024/01/25 06:25:07;;;;;;;37.65;5.38;;;;;;;;;;5089510;28;20127;-73
2024/01/25 06:27:33;;;;;;;38.97;6.03;;;;;;;;;;5093029;28;20051;-73
2024/01/25 06:29:59;;;;;;;40.38;5.28;;;;;;;;;;5075798;28;20043;-73
2024/01/25 06:32:25;;;;;;;39.05;5.47;;;;;;;;;;5092659;28;20036;-73
2024/01/25 06:34:51;;;;;;;33.15;5.85;;;;;;;;;;5092705;28;20169;-73
2024/01/25 06:37:18;;;;;;;41.08;5.45;;;;;;;;;;5092864;28;20044;-73
2024/01/25 06:39:44;;;;;;;30.70;5.03;;;;;;;;;;5092806;28;20097;-73
2024/01/25 06:42:10;;;;;;;45.20;6.13;;;;;;;;;;5075657;28;20476;-73
2024/01/25 06:44:37;;;;;;;36.85;6.22;;;;;;;;;;5092772;28;20054;-74
2024/01/25 06:47:03;;;;;;;32.22;5.28;;;5.10;99.90;;;;;;5092462;28;20040;-73
2024/01/25 06:49:29;;;;;;;46.17;7.05;;;;;;;;;;5091875;28;20040;-73
2024/01/25 06:51:55;;;;;;;36.30;6.07;;;;;;;;;;5092336;28;20078;-73
2024/01/25 06:54:22;;;;;;;39.30;5.70;;;;;;;;;;5075879;28;20108;-73
2024/01/25 06:56:49;;;;;;;26.38;4.70;;;;;;;;;;5092551;28;20076;-73
2024/01/25 06:59:15;;;;;;;31.10;5.75;;;;;;;;;;5092287;28;20044;-73
2024/01/25 07:01:41;;;;;;;29.60;4.57;;;;;;;;;;5058224;28;20523;-73
2024/01/25 07:04:07;;;;;;;43.65;5.63;;;;;;;;;;5055661;28;20052;-73
2024/01/25 07:06:33;;;;;;;33.80;5.32;;;;;;;;;;5071601;28;20048;-73
2024/01/25 07:08:59;;;;;;;30.83;4.85;;;;;;;;;;5072938;28;20044;-73
2024/01/25 07:11:25;;;;;;;32.05;4.97;;;;;;;;;;5078686;28;20087;-72
2024/01/25 07:13:52;;;;;;;29.80;5.50;;;;;;;;;;5080683;28;20123;-73
2024/01/25 07:16:19;;;;;;;31.05;5.88;;;;;;;;;;5091991;28;20032;-74
2024/01/25 07:18:45;;;;;;;28.00;4.85;;;;;;;;;;5079093;28;20037;-73
2024/01/25 07:21:11;;;;;;;30.10;4.70;;;;;;;;;;5071557;28;20128;-74
2024/01/25 07:23:37;;;;;;;31.63;5.80;;;;;;;;;;5054844;28;20032;-73
2024/01/25 07:26:03;;;;;;;29.05;5.25;;;;;;;;;;5071317;28;20515;-73
2024/01/25 07:28:29;;;;;;;41.30;5.20;;;;;;;;;;5071475;28;20040;-73
2024/01/25 07:30:55;;;;;;;33.33;6.10;;;;;;;;;;5083856;28;20484;-72
2024/01/25 07:33:21;;;;;;;34.42;5.05;;;;;;;;;;5074865;28;20036;-73
2024/01/25 07:35:48;;;;;;;41.28;5.90;;;;;;;;;;5075139;28;20036;-73
2024/01/25 07:38:14;;;;;;;44.67;5.60;;;5.50;99.90;;;;;;5091616;28;20089;-72
2024/01/25 07:40:40;;;;;;;35.97;6.15;;;;;;;;;;5091499;28;20079;-73
2024/01/25 07:43:06;;;;;;;29.58;5.90;;;;;;;;;;5074948;28;20051;-73
2024/01/25 07:45:33;;;;;;;30.52;4.80;;;;;;;;;;5091560;28;20109;-73
2024/01/25 07:47:59;;;;;;;32.33;5.30;;;;;;;;;;5092968;28;20040;-73
2024/01/25 07:50:25;;;;;;;30.27;5.07;;;;;;;;;;5091408;28;20044;-72
2024/01/25 07:52:51;;;;;;;29.65;5.15;;;;;;;;;;5074741;28;20097;-73
2024/01/25 07:55:18;;;;;;;29.85;4.78;;;;;;;;;;5091425;28;20488;-73
2024/01/25 07:57:44;;;;;;;24.92;4.75;;;;;;;;;;5091685;28;20438;-73
2024/01/25 08:00:10;;;;;;;30.88;4.95;;;;;;;;;;5083456;28;20476;-78
2024/01/25 08:02:38;;;;;;;35.00;5.95;;;;;;;;;;5059374;28;20048;-73
2024/01/25 08:05:05;;;;;;;35.45;5.72;;;;;;;;;;5079305;28;20447;-73
2024/01/25 08:07:31;;;;;;;30.00;5.38;;;;;;;;;;5077312;28;20485;-73
2024/01/25 08:09:58;;;;;;;30.65;5.57;;;;;;;;;;5084909;28;20047;-74
2024/01/25 08:12:27;;;;;;;36.53;6.70;;;;;;;;;;5077431;28;20524;-73
2024/01/25 08:14:53;;;;;;;29.65;5.07;;;;;;;;;;5081950;28;20081;-73
2024/01/25 08:17:20;;;;;;;26.38;5.00;;;;;;;;;;5080766;28;20044;-73
2024/01/25 08:19:46;;;;;;;34.83;5.05;;;;;;;;;;5074395;28;20052;-73
2024/01/25 08:22:12;;;;;;;26.45;5.65;;;;;;;;;;5070198;28;20051;-73
2024/01/25 08:24:39;;;;;;;41.90;5.70;;;;;;;;;;5074208;28;20066;-73
2024/01/25 08:27:07;;;;;;;40.60;5.65;;;;;;;;;;5074218;28;20504;-73
2024/01/25 08:29:33;;;;;;;38.65;5.65;;;;;;;;;;5072518;28;20076;-73
2024/01/25 08:31:59;;;;;;;26.73;4.72;;;;;;;;;;5075395;28;20684;-73
2024/01/25 08:34:25;;;;;;;34.78;5.38;;;;;;;;;;5074715;28;20045;-73
2024/01/25 08:36:51;;;;;;;36.75;4.93;;;;;;;;;;5073982;28;20119;-73
2024/01/25 08:39:17;;;;;;;31.90;5.10;;;;;;;;;;5057379;28;20036;-73
2024/01/25 08:41:45;;;;;;;24.63;6.18;;;;;;;;;;5074221;28;20050;-73
2024/01/25 08:44:11;;;;;;;27.15;5.55;;;;;;;;;;5074265;28;20052;-73
2024/01/25 08:46:38;;;;;;;38.00;5.53;;;;;;;;;;5074058;28;20044;-73
2024/01/25 08:49:08;;;;;;;32.50;5.72;;;;;;;;;;5072893;28;20040;-73
2024/01/25 08:51:34;;;;;;;36.10;5.53;;;;;;;;;;5074308;28;20045;-73
2024/01/25 08:54:00;;;;;;;33.35;5.60;;;;;;;;;;5074492;28;20039;-73
2024/01/25 08:56:26;;;;;;;35.17;6.03;;;;;;;;;;5074310;28;20089;-74
2024/01/25 08:58:53;;;;;;;35.78;5.60;;;;;;;;;;5074302;28;20064;-73
2024/01/25 09:01:19;;;;;;;19.98;4.70;;;;;;;;;;5073579;28;20036;-74
2024/01/25 09:03:45;;;;;;;32.40;4.50;;;;;;;;;;5073974;28;20378;-73
2024/01/25 09:06:12;;;;;;;35.97;5.65;;;;;;;;;;5072079;28;20392;-73
2024/01/25 09:08:38;;;;;;;34.80;5.60;;;;;;;;;;5072636;28;20047;-73
2024/01/25 09:11:04;;;;;;;32.67;5.55;;;;;;;;;;5071890;28;20044;-73
2024/01/25 09:13:32;;;;;;;31.90;5.38;;;;;;;;;;5074088;28;20040;-73
2024/01/25 09:15:58;;;;;;;33.15;6.40;;;;;;;;;;5073899;28;20040;-73
2024/01/25 09:18:24;;;;;;;31.67;5.38;;;;;;;;;;5073793;28;20053;-73
2024/01/25 09:20:51;;;;;;;31.67;6.28;;;;;;;;;;5071962;28;20141;-74
2024/01/25 09:23:17;;;;;;;36.53;6.22;;;;;;;;;;5072278;28;20047;-74
2024/01/25 09:25:44;;;;;;;26.75;4.88;;;;;;;;;;5072913;28;20523;-74
2024/01/25 09:28:14;;;;;;;32.03;5.18;;;;;;;;;;5073478;28;20047;-74
2024/01/25 09:30:41;;;;;;;36.60;5.95;;;;;;;;;;5074339;28;20040;-74
2024/01/25 09:33:07;;;;;;;31.60;5.30;;;;;;;;;;5083985;28;20510;-74
2024/01/25 09:35:33;;;;;;;35.88;4.90;;;;;;;;;;5056473;28;20050;-74
2024/01/25 09:37:59;;;;;;;24.48;5.10;;;;;;;;;;5056802;28;20342;-74
2024/01/25 09:40:25;;;;;;;32.67;5.70;;;;;;;;;;5073188;28;20048;-74
2024/01/25 09:42:52;;;;;;;27.23;5.97;;;;;;;;;;5072238;28;20040;-74
2024/01/25 09:45:19;;;;;;;36.90;5.13;;;;;;;;;;5073145;28;20054;-74
2024/01/25 09:47:45;;;;;;;27.50;4.63;;;;;;;;;;5065297;28;20546;-74
2024/01/25 09:50:11;;;;;;;27.90;5.65;;;;;;;;;;5071677;28;20401;-74
2024/01/25 09:52:38;;;;;;;35.25;6.32;;;;;;;;;;5073032;28;20036;-74
2024/01/25 09:55:08;;;;;;;30.60;5.38;;;;;;;;;;5089965;28;20129;-74
2024/01/25 09:57:38;;;;;;;33.13;5.97;;;;;;;;;;5072874;28;20064;-74
2024/01/25 10:00:06;;;;;;;34.42;4.75;;;;;;;;;;5072903;28;20045;-74
2024/01/25 10:02:32;;;;;;;31.77;5.43;;;;;;;;;;5056356;28;20036;-74
2024/01/25 10:04:58;;;;;;;39.03;5.47;;;;;;;;;;5072961;28;20540;-74
2024/01/25 10:07:40;;;;;;;36.15;6.60;;;;;;;;;;5073176;28;20163;-74
2024/01/25 10:10:06;;;;;;;28.27;5.83;;;;;;;;;;5053014;28;20044;-74
2024/01/25 10:12:33;;;;;;;29.35;5.10;;;;;;;;;;5067168;28;20044;-74
2024/01/25 10:14:59;;;;;;;29.50;6.32;;;;;;;;;;5072904;28;20036;-74
2024/01/25 10:17:25;;;;;;;29.40;5.90;;;;;;;;;;5072747;28;20036;-74
2024/01/25 10:19:52;;;;;;;32.25;6.55;;;;;;;;;;5072521;28;20040;-74
2024/01/25 10:22:18;;;;;;;29.67;4.78;;;;;;;;;;5074312;28;20230;-74
2024/01/25 10:24:45;;;;;;;26.48;5.40;;;;;;;;;;5055843;28;20044;-74
2024/01/25 10:27:12;;;;;;;34.17;5.60;;;;;;;;;;5079123;28;20449;-74
2024/01/25 10:29:38;;;;;;;22.83;4.57;;;;;;;;;;5079270;28;20090;-74
2024/01/25 10:32:04;;;;;;;31.45;5.40;;;;;;;;;;5072477;28;20040;-74
2024/01/25 10:34:31;;;;;;;31.95;6.25;;;;;;;;;;5092804;28;20039;-74
2024/01/25 10:36:57;;;;;;;35.83;5.53;;;;;;;;;;5088058;28;20040;-74
2024/01/25 10:39:24;;;;;;;27.17;5.82;;;7.00;99.90;;;;;;5109578;28;20040;-74
2024/01/25 10:41:52;;;;;;;42.97;7.35;;;;;;;;;;5092560;28;20377;-74
2024/01/25 10:44:19;;;;;;;39.85;6.55;;;;;;;;;;5092506;28;20145;-74
2024/01/25 10:46:47;;;;;;;34.65;6.65;;;;;;;;;;5090366;28;20052;-74
2024/01/25 10:49:13;;;;;;;34.72;6.07;;;;;;;;;;5072248;28;20036;-74
2024/01/25 10:51:41;;;;;;;31.15;5.80;;;;;;;;;;5072644;28;20032;-74
2024/01/25 10:54:08;;;;;;;30.30;5.88;;;7.20;99.90;;;;;;5080321;28;20499;-74
2024/01/25 10:56:36;;;;;;;27.40;5.40;;;;;;;;;;5081696;28;20404;-74
2024/01/25 10:59:03;;;;;;;32.13;5.82;;;;;;;;;;5072133;28;20119;-74
2024/01/25 11:01:29;;;;;;;35.05;5.55;;;;;;;;;;5072813;28;20132;-74
2024/01/25 11:03:55;;;;;;;34.95;5.78;;;;;;;;;;5074353;28;20086;-75
2024/01/25 11:06:22;;;;;;;39.05;6.43;;;7.50;99.90;;;;;;5071894;28;20037;-74
2024/01/25 11:08:49;;;;;;;31.70;4.80;;;;;;;;;;5056048;28;20082;-74
2024/01/25 11:11:15;;;;;;;31.65;5.55;;;;;;;;;;5077422;28;20045;-75
2024/01/25 11:13:43;;;;;;;30.42;5.30;;;7.80;99.90;;;;;;5074921;28;20392;-74
2024/01/25 11:16:15;;;;;;;32.45;5.50;;;;;;;;;;5072971;28;20035;-74
2024/01/25 11:18:52;;;;;;;29.42;4.95;;;7.80;99.90;;;;;;5073741;28;20043;-74
2024/01/25 11:21:41;;;;;;;24.00;5.82;;;7.80;99.90;;;;;;5090832;28;20044;-74
2024/01/25 11:24:21;;;;;;;32.03;5.82;;;;;;;;;;5070671;28;20043;-74
2024/01/25 11:26:48;;;;;;;25.92;5.38;;;;;;;;;;5075452;28;20039;-74
2024/01/25 11:29:18;;;;;;;32.28;5.57;;;;;;;;;;5075470;28;20465;-74
2024/01/25 11:31:48;;;;;;;30.45;5.32;;;;;;;;;;5077564;28;20043;-74
2024/01/25 11:34:15;;;;;;;29.38;4.75;;;;;;;;;;5082631;28;20032;-74
2024/01/25 11:36:41;;;;;;;28.15;5.72;;;;;;;;;;5049086;28;20051;-74
2024/01/25 11:39:09;;;;;;;36.42;5.40;;;7.80;99.90;;;;;;5076259;28;20029;-75
2024/01/25 11:41:36;;;;;;;34.92;6.45;;;;;;;;;;5056269;28;20044;-74
2024/01/25 11:44:05;;;;;;;34.13;6.32;;;;;;;;;;5082303;28;20032;-74
2024/01/25 11:46:32;;;;;;;34.78;5.43;;;;;;;;;;5073078;28;20032;-74
2024/01/25 11:49:01;;;;;;;35.70;5.90;;;;;;;;;;5087741;28;20162;-75
2024/01/25 11:51:27;;;;;;;29.08;5.50;;;;;;;;;;5057408;28;20043;-75
2024/01/25 11:53:53;;;;;;;32.70;6.25;;;;;;;;;;5070029;28;20051;-74
2024/01/25 11:56:31;;;;;;;42.13;6.07;;;7.70;99.90;;;;;;5084523;28;20044;-74
2024/01/25 11:58:58;;;;;;;34.75;6.32;;;;;;;;;;5081105;28;20044;-74
2024/01/25 12:01:27;;;;;;;30.55;4.57;;;;;;;;;;5057003;28;20047;-74
2024/01/25 12:03:54;;;;;;;27.83;5.13;;;;;;;;;;5082199;28;20048;-74
2024/01/25 12:06:20;;;;;;;29.02;5.15;;;;;;;;;;5083184;28;20032;-74
2024/01/25 12:08:48;;;;;;;26.05;5.60;;;;;;;;;;5071206;28;20040;-75
2024/01/25 12:11:14;;;;;;;30.33;6.28;;;;;;;;;;5067437;28;20426;-74
2024/01/25 12:13:41;;;;;;;28.10;4.90;;;;;;;;;;5081225;28;20480;-74
2024/01/25 12:16:07;;;;;;;30.27;4.82;;;;;;;;;;5056889;28;20044;-78
2024/01/25 12:18:35;;;;;;;26.65;5.78;;;;;;;;;;5084107;28;20074;-76
2024/01/25 12:21:01;;;;;;;32.13;6.40;;;;;;;;;;5076563;28;20553;-74
2024/01/25 12:23:53;;;;;;;29.38;5.05;;;8.50;99.90;;;;;;5068600;28;20047;-74
2024/01/25 12:26:19;;;;;;;30.95;5.32;;;;;;;;;;5051206;28;20546;-73
2024/01/25 12:28:48;;;;;;;32.20;4.75;;;;;;;;;;5072450;28;20036;-73
2024/01/25 12:31:14;;;;;;;32.35;4.82;;;;;;;;;;5079751;28;20514;-69
2024/01/25 12:33:42;;;;;;;24.02;4.70;;;8.60;99.90;;;;;;5072278;28;20120;-69
2024/01/25 12:36:09;;;;;;;22.13;5.32;;;8.50;99.90;;;;;;5054202;28;20489;-69
2024/01/25 12:38:35;;;;;;;27.45;4.93;;;;;;;;;;5072113;28;20076;-69
2024/01/25 12:41:02;;;;;;;25.00;5.45;;;;;;;;;;5070591;28;20040;-69
2024/01/25 12:43:29;;;;;;;26.13;5.03;;;;;;;;;;5071188;28;20055;-69
2024/01/25 12:45:55;;;;;;;26.08;5.22;;;;;;;;;;5097457;28;20122;-69
2024/01/25 12:48:21;;;;;;;27.35;5.30;;;;;;;;;;5096094;28;20032;-69
2024/01/25 12:50:47;;;;;;;31.77;6.85;;;;;;;;;;5095764;28;20032;-69
2024/01/25 12:53:14;;;;;;;35.10;5.65;;;;;;;;;;5111142;28;20048;-72
2024/01/25 12:55:40;;;;;;;24.02;5.13;;;;;;;;;;5094453;28;20448;-69
2024/01/25 12:58:06;;;;;;;24.90;6.40;;;;;;;;;;5111635;28;20044;-69
2024/01/25 13:00:33;;;;;;;28.05;5.80;;;;;;;;;;5111505;28;20479;-69
2024/01/25 13:03:01;;;;;;;33.63;6.95;;;;;;;;;;5095454;28;20523;-69
2024/01/25 13:05:27;;;;;;;34.20;5.60;;;;;;;;;;5094534;28;20051;-69
2024/01/25 13:07:53;;;;;;;31.30;6.40;;;;;;;;;;5094204;28;20094;-69
2024/01/25 13:10:20;;;;;;;22.15;5.00;;;;;;;;;;5095495;28;20032;-69
2024/01/25 13:12:46;;;;;;;26.42;5.82;;;;;;;;;;5078559;28;20040;-69
2024/01/25 13:15:12;;;;;;;27.20;5.70;;;;;;;;;;5057628;28;20389;-69
2024/01/25 13:17:38;;;;;;;23.52;6.07;;;;;;;;;;5073970;28;20072;-69
2024/01/25 13:20:06;;;;;;;25.30;6.28;;;;;;;;;;5073786;28;20036;-69
2024/01/25 13:22:33;;;;;;;25.15;5.05;;;;;;;;;;5073862;28;20052;-69
2024/01/25 13:25:00;;;;;;;25.77;6.35;;;;;;;;;;5075180;28;20071;-69
2024/01/25 13:27:27;;;;;;;33.60;6.60;;;;;;;;;;5073828;28;20048;-69
2024/01/25 13:29:53;;;;;;;27.20;6.15;;;;;;;;;;5074962;28;20457;-69
2024/01/25 13:32:19;;;;;;;33.13;6.68;;;;;;;;;;5074055;28;20040;-69
2024/01/25 13:34:45;;;;;;;32.50;5.93;;;;;;;;;;5088213;28;20036;-68
2024/01/25 13:37:11;;;;;;;26.77;5.60;;;;;;;;;;5111019;28;20164;-68
2024/01/25 13:39:37;;;;;;;32.67;6.47;;;;;;;;;;5093486;28;20059;-68
2024/01/25 13:42:04;;;;;;;29.00;5.60;;;;;;;;;;5100867;28;20071;-68
2024/01/25 13:44:30;;;;;;;27.80;5.95;;;;;;;;;;5056769;28;20036;-68
2024/01/25 13:46:56;;;;;;;30.65;5.78;;;;;;;;;;5073311;28;20044;-68
2024/01/25 13:49:22;;;;;;;31.13;5.65;;;;;;;;;;5073190;28;20051;-68
2024/01/25 13:51:48;;;;;;;30.95;5.72;;;;;;;;;;5073236;28;20070;-68
2024/01/25 13:54:14;;;;;;;34.75;7.00;;;;;;;;;;5073168;28;20051;-68
2024/01/25 13:56:40;;;;;;;27.63;5.53;;;;;;;;;;5072666;28;20481;-68
2024/01/25 13:59:07;;;;;;;29.60;5.40;;;;;;;;;;5072482;28;20428;-68
2024/01/25 14:01:33;;;;;;;25.80;6.00;;;;;;;;;;5073300;28;20048;-68
2024/01/25 14:03:59;;;;;;;27.55;6.40;;;;;;;;;;5072966;28;20405;-68
2024/01/25 14:06:25;;;;;;;24.35;5.03;;;;;;;;;;5073399;28;20120;-68
2024/01/25 14:08:51;;;;;;;23.58;4.90;;;;;;;;;;5073202;28;20043;-69
2024/01/25 14:11:17;;;;;;;24.42;4.75;;;;;;;;;;5072483;28;20076;-68
2024/01/25 14:13:43;;;;;;;25.75;5.93;;;;;;;;;;5056441;28;20382;-68
2024/01/25 14:16:09;;;;;;;29.25;5.32;;;;;;;;;;5074036;28;20497;-68
2024/01/25 14:18:39;;;;;;;25.83;5.38;;;;;;;;;;5056149;28;20044;-68
2024/01/25 14:21:06;;;;;;;36.33;5.00;;;;;;;;;;5072548;28;20135;-68